createdAt,value
2023-02-07T00:00:29.250Z,1.08828
2023-02-07T00:10:30.678Z,1.01598
2023-02-07T00:20:31.841Z,0.94812
2023-02-07T00:30:33.123Z,1.11682
2023-02-07T00:40:34.312Z,1.17327
2023-02-07T00:50:35.534Z,1.24303
2023-02-07T01:00:36.736Z,1.32072
2023-02-07T01:10:37.863Z,1.30391
2023-02-07T01:20:38.935Z,1.35211
2023-02-07T01:30:40.238Z,1.41997
2023-02-07T01:40:41.600Z,1.33784
2023-02-07T01:50:42.729Z,1.29535
2023-02-07T02:00:43.841Z,1.45961
2023-02-07T02:10:44.956Z,1.47039
2023-02-07T02:20:46.144Z,1.26998
2023-02-07T02:30:47.390Z,1.2814
2023-02-07T02:40:48.583Z,1.12507
2023-02-07T02:50:49.747Z,0.83238
2023-02-07T03:00:51.127Z,0.69888
2023-02-07T03:10:52.286Z,0.73916
2023-02-07T03:20:53.453Z,0.70586
2023-02-07T03:30:54.624Z,0.73186
2023-02-07T03:40:55.838Z,0.8178
2023-02-07T03:50:56.943Z,0.93766
2023-02-07T04:00:58.350Z,0.7566
2023-02-07T04:10:59.722Z,0.76199
2023-02-07T04:21:01.132Z,0.7734
2023-02-07T04:31:02.707Z,0.80733
2023-02-07T04:41:04.387Z,0.78228
2023-02-07T04:51:06.096Z,0.78926
2023-02-07T05:01:07.847Z,0.7845
2023-02-07T05:11:09.321Z,0.87805
2023-02-07T05:21:10.911Z,0.84792
2023-02-07T05:31:12.630Z,0.8457
2023-02-07T05:41:13.822Z,0.72647
2023-02-07T05:51:14.948Z,0.73218
2023-02-07T06:01:16.077Z,0.76579
2023-02-07T06:11:17.211Z,0.67637
2023-02-07T06:21:18.406Z,0.73789
2023-02-07T06:31:19.646Z,0.58885
2023-02-07T06:41:21.153Z,0.59963
2023-02-07T06:51:22.315Z,0.51053
2023-02-07T07:01:23.502Z,0.70205
2023-02-07T07:11:24.699Z,0.92307
2023-02-07T07:21:26.001Z,1.10319
2023-02-07T07:31:27.139Z,1.18214
2023-02-07T07:41:28.300Z,1.34989
2023-02-07T07:51:29.443Z,1.54396
2023-02-07T08:11:31.565Z,1.85567
2023-02-07T08:21:32.699Z,1.82998
2023-02-07T08:31:33.964Z,1.80144
2023-02-07T08:41:35.142Z,1.86804
2023-02-07T08:51:36.297Z,2.02754
2023-02-07T09:01:37.468Z,2.24063
2023-02-07T09:11:38.689Z,2.35479
2023-02-07T09:21:39.906Z,2.43565
2023-02-07T09:31:41.476Z,2.69346
2023-02-07T09:41:42.726Z,2.87516
2023-02-07T09:51:43.868Z,3.01786
2023-02-07T10:01:45.025Z,3.25696
2023-02-07T10:11:46.249Z,3.62195
2023-02-07T10:21:47.512Z,3.83664
2023-02-07T10:31:48.743Z,4.19402
2023-02-07T10:41:49.911Z,4.54031
2023-02-07T10:51:51.308Z,4.71345
2023-02-07T11:01:52.500Z,5.02739
2023-02-07T11:11:53.685Z,5.38383
2023-02-07T11:21:54.868Z,5.65972
2023-02-07T11:31:56.024Z,5.91817
2023-02-07T11:41:57.161Z,6.16616
2023-02-07T11:51:58.313Z,6.53243
2023-02-07T12:01:59.730Z,6.86478
2023-02-07T12:12:01.138Z,7.31287
2023-02-07T12:22:02.547Z,7.35219
2023-02-07T12:32:04.471Z,7.42386
2023-02-07T12:42:06.245Z,7.54183
2023-02-07T12:52:07.979Z,7.70008
2023-02-07T13:02:09.446Z,7.83073
2023-02-07T13:12:11.027Z,7.92809
2023-02-07T13:22:12.213Z,7.92682
2023-02-07T13:32:13.410Z,7.96805
2023-02-07T13:42:14.611Z,8.09173
2023-02-07T13:52:15.921Z,8.21953
2023-02-07T14:02:17.033Z,8.33687
2023-02-07T14:12:18.296Z,8.3023
2023-02-07T14:22:19.502Z,8.49162
2023-02-07T14:32:20.902Z,8.50685
2023-02-07T14:42:22.082Z,8.36826
2023-02-07T14:52:23.367Z,8.56551
2023-02-07T15:02:24.616Z,8.62101
2023-02-07T15:12:27.628Z,8.80304
2023-02-07T15:22:29.044Z,8.88423
2023-02-07T15:32:30.557Z,8.72408
2023-02-07T15:42:31.869Z,8.60452
2023-02-07T15:52:33.028Z,8.24109
2023-02-07T16:02:34.284Z,8.00261
2023-02-07T16:12:35.490Z,7.89289
2023-02-07T16:22:36.726Z,7.70452
2023-02-07T16:32:37.911Z,7.49173
2023-02-07T16:42:39.110Z,7.35632
2023-02-07T16:52:40.519Z,7.24405
2023-02-07T17:02:41.671Z,7.24215
2023-02-07T17:12:42.859Z,7.18348
2023-02-07T17:22:44.027Z,7.16287
2023-02-07T17:32:45.239Z,6.97672
2023-02-07T17:42:46.421Z,6.82355
2023-02-07T17:52:47.557Z,6.79755
2023-02-07T18:02:48.683Z,6.84036
2023-02-07T18:12:49.832Z,6.95484
2023-02-07T18:22:51.230Z,6.93549
2023-02-07T18:32:52.427Z,6.93645
2023-02-07T18:42:53.627Z,6.94057
2023-02-07T18:52:54.863Z,6.72493
2023-02-07T19:02:56.109Z,6.69385
2023-02-07T19:12:57.300Z,6.7189
2023-02-07T19:22:58.428Z,6.69416
2023-02-07T19:32:59.573Z,6.60505
2023-02-07T20:03:53.846Z,6.51721
2023-02-07T20:44:21.145Z,6.36721
2023-02-07T21:44:26.001Z,6.19185
2023-02-07T21:54:27.145Z,6.05453
2023-02-07T22:04:28.324Z,6.14174
2023-02-07T22:14:29.500Z,6.20009
2023-02-07T22:24:30.922Z,6.228
2023-02-07T22:34:32.141Z,6.21246
2023-02-07T22:44:33.300Z,6.14999
2023-02-07T22:54:34.689Z,5.98255
2023-02-07T23:04:35.905Z,5.83097
2023-02-07T23:14:37.057Z,5.79323
2023-02-07T23:24:38.229Z,5.8278
2023-02-07T23:34:39.398Z,5.86775
2023-02-07T23:44:40.816Z,5.85412
2023-02-07T23:54:42.006Z,5.84143
